x

West Santa Barbara 38 Nm West Of Santa Barbara, Ca (46054) Wave Buoy

11:50pm - Mon 1st Sep 2014 All times are PDT. -7 hours from GMT.

  • Sig Wave height 5.9ft
  • Swell Direction
  • Peak Period 9s
  • Average Period 6s
  • Wind
    20mph, 25mph gusts
  • Sea Temp 63°f
  • 空気 Temp 61°f
  • Sea Pressure 1008.8mb
  • West Santa Barbara  38 Nm West Of Santa Barbara, Ca
  • West Santa Barbara  38 Nm West Of Santa Barbara, Ca

More Historic Weather Station data

Upgrade to MSW Pro to gain access to the past 30 days of data for over 8000 Wavebouys and Weather Stations around the globe.

Join Pro

Comparision Forecast

View Surf forecast
   
Mon 09/01 11:50pm 6ft 9s 6s 20 25 mph 1008.8mb 63f 61f
10:50pm 6ft 8s 6s 20 25 mph 1008.9mb 63f 61f
9:50pm 7ft 9s 6s 22 27 mph 1008.7mb 63f 62f
8:50pm 6.5ft 9s 6s 22 27 mph 1008.4mb 63f 62f
7:50pm 6ft 8s 6s 20 25 mph 1008.2mb 64f 62f
6:50pm 6ft 9s 6s 22 27 mph 1008mb 64f 63f
5:50pm 6ft 9s 6s 22 27 mph 1008.2mb 64f 63f
4:50pm 6ft 8s 6s 22 27 mph 1008.4mb 64f 63f
3:50pm 6ft 10s 6s 20 25 mph 1008.6mb 64f 62f
2:50pm 5ft 7s 6s 20 25 mph 1009.1mb 63f 62f
1:50pm 5.5ft 8s 6s 18 22 mph 1009.8mb 63f 62f
12:50pm 5ft 10s 6s 18 22 mph 1010.1mb 62f 62f
11:50am 5ft 8s 6s 16 20 mph 1010.6mb 61f 62f
10:50am 5.5ft 15s 6s 16 18 mph 1010.7mb 61f 62f
9:50am 5ft 8s 6s 16 18 mph 1010.5mb 61f 61f
8:50am 6ft 8s 6s 18 20 mph 1010mb 62f 61f
7:50am 5.5ft 8s 6s 18 22 mph 1009.8mb 62f 61f
6:50am 5.5ft 8s 6s 18 22 mph 1009.2mb 62f 61f
5:50am 6ft 8s 6s 20 25 mph 1008.7mb 62f 61f
4:50am 5.5ft 8s 6s 20 25 mph 1008.5mb 62f 61f
3:50am 5ft 8s 6s 20 27 mph 1008.4mb 62f 61f
2:50am 6ft 7s 6s 22 27 mph 1008.7mb 62f 61f
1:50am 6.5ft 8s 6s 22 27 mph 1008.9mb 62f 61f
12:50am 7ft 7s 6s 22 27 mph 1009.1mb 62f 62f
Sun 08/31 11:50pm 6.5ft 8s 5s 25 31 mph 1008.6mb 62f 62f
10:50pm 6.5ft 7s 5s 25 29 mph 1008.6mb 62f 62f
9:50pm 6.5ft 8s 5s 27 31 mph 1008.3mb 62f 62f
8:50pm 6.5ft 8s 5s 27 31 mph 1008mb 62f 62f
7:50pm 6ft 7s 6s 27 31 mph 1007.6mb 63f 63f
6:50pm 6ft 8s 5s 25 29 mph 1007.9mb 63f 63f
5:50pm 6ft 8s 5s 25 27 mph 1008.1mb 63f 63f
4:50pm 6ft 8s 5s 25 29 mph 1008.4mb 63f 63f
3:50pm 6ft 8s 5s 27 34 mph 1008.6mb 62f 63f
2:50pm 6ft 8s 5s 27 31 mph 1009.4mb 63f 63f
1:50pm 6ft 7s 5s 27 31 mph 1009.8mb 63f 63f
12:50pm 5ft 8s 5s 25 29 mph 1010.2mb 62f 63f
11:50am 6ft 8s 5s 25 29 mph 1010.3mb 62f 63f
10:50am 6ft 8s 5s 25 29 mph 1010.5mb 62f 63f
9:50am 6ft 8s 5s 27 31 mph 1010.1mb 62f 62f
8:50am 6ft 8s 5s 25 29 mph 1009.9mb 62f 62f
7:50am 6.5ft 8s 6s 27 34 mph 1009.2mb 62f 62f
6:50am 6ft 8s 6s 27 31 mph 1008.8mb 62f 62f
5:50am 6.5ft 8s 6s 27 31 mph 1008.2mb 62f 62f
4:50am 6.5ft 8s 6s 27 31 mph 1008mb 61f 62f
3:50am 6ft 8s 5s 27 31 mph 1008mb 61f 62f
2:50am 6.5ft 7s 6s 27 31 mph 1007.9mb 60f 62f
1:50am 6.5ft 8s 6s 27 31 mph 1008.3mb 60f 62f
12:50am 6ft 8s 5s 25 29 mph 1008.3mb 60f 62f
Sat 08/30 11:50pm 6ft 7s 5s 27 34 mph 1008.2mb 60f 63f
10:50pm 6ft 8s 5s 27 31 mph 1008.1mb 60f 63f
9:50pm 6ft 6s 5s 27 31 mph 1008.4mb 61f 63f
8:50pm 5.5ft 6s 5s 27 34 mph 1008.1mb 61f 64f
7:50pm 6ft 6s 5s 31 36 mph 1007.4mb 61f 64f
6:50pm 6ft 7s 5s 27 31 mph 1007.6mb 61f 64f
5:50pm 5.5ft 6s 5s 29 34 mph 1007.3mb 61f 64f
4:50pm 5ft 6s 5s 27 31 mph 1007.5mb 61f 65f
3:50pm 5ft 7s 5s 22 27 mph 1008.1mb 61f 64f
2:50pm 5ft 7s 5s 22 25 mph 1008.7mb 61f 64f
1:50pm 5ft 7s 6s 22 25 mph 1009.1mb 61f 63f
12:50pm 5.5ft 7s 5s 20 25 mph 1009.3mb 61f 63f
11:50am 5ft 7s 6s 18 22 mph 1009.7mb 61f 62f
10:50am 5ft 8s 6s 16 20 mph 1010.1mb 61f 62f
9:50am 4.5ft 7s 6s 16 20 mph 1010.1mb 61f 61f
8:50am 5ft 7s 6s 20 22 mph 1009.6mb 61f 61f
7:50am 5ft 7s 5s 16 20 mph 1009.5mb 61f 60f
6:50am 5.5ft 7s 5s 22 27 mph 1009mb 61f 60f
5:50am 5.5ft 7s 5s 27 29 mph 1008.3mb 61f 59f
4:50am 6ft 5s 5s 22 27 mph 1007.9mb 61f 60f
3:50am 6ft 6s 6s 25 29 mph 1008mb 61f 59f
2:50am 6.5ft 6s 5s 27 34 mph 1008mb 61f 59f
1:50am 7ft 6s 5s 29 34 mph 1008.3mb 62f 60f
12:50am 6.5ft 7s 5s 29 38 mph 1008.5mb 62f 61f
Fri 08/29 11:50pm 6.5ft 6s 5s 29 34 mph 1008.9mb 63f 61f
10:50pm 6ft 6s 5s 27 34 mph 1009.1mb 63f 61f
9:50pm 6ft 6s 5s 27 34 mph 1009.6mb 63f 61f
8:50pm 6ft 6s 5s 27 31 mph 1009.5mb 63f 62f
7:50pm 5.5ft 6s 5s 27 31 mph 1009.2mb 62f 62f
6:50pm 6ft 6s 5s 27 31 mph 1009.3mb 62f 62f
5:50pm 5.5ft 6s 5s 27 31 mph 1009.7mb 62f 62f
4:50pm 5ft 6s 5s 25 29 mph 1010.1mb 62f 62f
3:50pm 5ft 6s 5s 22 27 mph 1010.6mb 62f 62f
2:50pm 5ft 10s 5s 22 29 mph 1010.8mb 62f 62f
1:50pm 5ft 5s 5s 20 25 mph 1011.2mb 62f 62f
12:50pm 5ft 6s 5s 22 27 mph 1011.4mb 62f 62f
11:50am 4.5ft 10s 5s 22 29 mph 1011.4mb 62f 61f
10:50am 6ft 11s 6s 22 27 mph 1011.7mb 62f 60f
9:50am 5ft 6s 5s 22 27 mph 1011.8mb 62f 60f
8:50am 4.5ft 11s 5s 25 29 mph 1011.6mb 62f 60f